Time;durP1;ratioP1;P1;durP2;ratioP2;P2;SDS_P1;SDS_P2;PMS_P1;PMS_P2;Temp;Humidity;BMP_temperature;BMP_pressure;BME280_temperature;BME280_humidity;BME280_pressure;Samples;Min_cycle;Max_cycle;Signal;HPM_P1;HPM_P2
2023/03/24 00:02:12;;;;;;;10.75;7.00;;;11.10;99.90;;;;;;5075780;28;20036;-47
2023/03/24 00:04:41;;;;;;;14.88;8.40;;;11.10;99.90;;;;;;5076154;28;20048;-48
2023/03/24 00:07:08;;;;;;;17.08;8.40;;;11.00;99.90;;;;;;5075491;28;20036;-47
2023/03/24 00:09:35;;;;;;;12.00;6.78;;;11.00;99.90;;;;;;5072724;28;20913;-43
2023/03/24 00:12:01;;;;;;;16.08;8.32;;;11.00;99.90;;;;;;5075833;28;20051;-53
2023/03/24 00:14:29;;;;;;;12.65;7.78;;;11.00;99.90;;;;;;5084737;28;20087;-40
2023/03/24 00:16:57;;;;;;;14.73;7.05;;;11.00;99.90;;;;;;5075357;28;20048;-49
2023/03/24 00:19:23;;;;;;;15.07;7.45;;;11.00;99.90;;;;;;5074465;28;20054;-46
2023/03/24 00:21:48;;;;;;;15.00;8.15;;;11.00;99.90;;;;;;5063980;28;20048;-40
2023/03/24 00:24:14;;;;;;;14.27;7.75;;;11.00;99.90;;;;;;5073180;28;20052;-44
2023/03/24 00:26:40;;;;;;;13.30;7.35;;;10.90;99.90;;;;;;5063347;28;20053;-54
2023/03/24 00:29:09;;;;;;;14.85;7.25;;;11.00;99.90;;;;;;5071978;28;20048;-40
2023/03/24 00:31:38;;;;;;;12.65;6.97;;;10.90;99.90;;;;;;5075563;28;20048;-43
2023/03/24 00:34:07;;;;;;;13.43;6.88;;;10.90;99.90;;;;;;5075995;28;20047;-44
2023/03/24 00:36:34;;;;;;;17.05;7.43;;;11.00;99.90;;;;;;5075338;28;20103;-48
2023/03/24 00:39:00;;;;;;;11.10;7.25;;;10.90;99.90;;;;;;5074712;28;20040;-52
2023/03/24 00:41:26;;;;;;;13.02;6.63;;;10.90;99.90;;;;;;5075616;28;20036;-49
2023/03/24 00:43:58;;;;;;;11.73;6.47;;;11.00;99.90;;;;;;5074682;28;20089;-46
2023/03/24 00:46:28;;;;;;;13.07;6.93;;;11.00;99.90;;;;;;5062177;28;20432;-39
2023/03/24 00:49:01;;;;;;;10.52;6.18;;;11.00;99.90;;;;;;5084114;28;20063;-44
2023/03/24 00:51:31;;;;;;;12.75;6.35;;;10.90;99.90;;;;;;5069827;28;20059;-40
2023/03/24 00:53:58;;;;;;;13.57;6.38;;;10.90;99.90;;;;;;5074147;28;20044;-40
2023/03/24 00:56:28;;;;;;;11.30;6.60;;;10.90;99.90;;;;;;5072883;28;20130;-42
2023/03/24 00:58:56;;;;;;;9.95;6.20;;;11.00;99.90;;;;;;5064676;28;20071;-42
2023/03/24 01:01:24;;;;;;;11.52;7.05;;;11.00;99.90;;;;;;5070524;28;20072;-39
2023/03/24 01:03:50;;;;;;;10.20;7.10;;;11.00;99.90;;;;;;5065592;28;20123;-51
2023/03/24 01:06:17;;;;;;;11.80;6.40;;;11.00;99.90;;;;;;5074844;28;20581;-46
2023/03/24 01:08:44;;;;;;;12.55;7.03;;;11.00;99.90;;;;;;5074610;28;20047;-51
2023/03/24 01:11:11;;;;;;;11.75;7.55;;;11.00;99.90;;;;;;5075205;28;20659;-55
2023/03/24 01:13:38;;;;;;;11.07;6.72;;;11.00;99.90;;;;;;5075943;28;20055;-39
2023/03/24 01:16:05;;;;;;;14.60;7.25;;;11.00;99.90;;;;;;5072684;28;20486;-40
2023/03/24 01:18:31;;;;;;;12.82;6.75;;;11.00;99.90;;;;;;5062937;28;20048;-54
2023/03/24 01:20:57;;;;;;;12.07;6.70;;;11.00;99.90;;;;;;5073669;28;20046;-43
2023/03/24 01:23:24;;;;;;;13.27;7.22;;;11.10;99.90;;;;;;5074868;28;20044;-46
2023/03/24 01:25:52;;;;;;;13.77;7.40;;;11.00;99.90;;;;;;5060918;28;20046;-50
2023/03/24 01:28:23;;;;;;;13.70;7.40;;;11.00;99.90;;;;;;5075249;28;20040;-45
2023/03/24 01:30:50;;;;;;;12.95;7.43;;;11.00;99.90;;;;;;5074899;28;20043;-44
2023/03/24 01:33:17;;;;;;;12.32;7.40;;;11.00;99.90;;;;;;5061266;28;20041;-49
2023/03/24 01:35:43;;;;;;;12.25;6.88;;;11.10;99.90;;;;;;5067241;28;20044;-48
2023/03/24 01:38:11;;;;;;;11.57;7.10;;;11.10;99.90;;;;;;5068437;28;20549;-46
2023/03/24 01:40:39;;;;;;;10.32;6.90;;;11.10;99.90;;;;;;5072529;28;20036;-48
2023/03/24 01:43:07;;;;;;;9.93;6.47;;;11.10;99.90;;;;;;5075505;28;20139;-49
2023/03/24 01:45:45;;;;;;;13.30;8.07;;;11.10;99.90;;;;;;5072828;28;20048;-45
2023/03/24 01:48:14;;;;;;;13.05;7.18;;;11.00;99.90;;;;;;5088177;28;20588;-46
2023/03/24 01:50:43;;;;;;;8.75;6.60;;;11.00;99.90;;;;;;5070741;28;20044;-53
2023/03/24 01:53:09;;;;;;;9.23;7.10;;;11.10;99.90;;;;;;5073733;28;20055;-42
2023/03/24 01:55:37;;;;;;;14.20;7.55;;;11.00;99.90;;;;;;5078349;28;20052;-44
2023/03/24 01:58:03;;;;;;;12.00;7.65;;;11.10;99.90;;;;;;5078208;28;20654;-42
2023/03/24 02:00:29;;;;;;;12.02;7.53;;;11.10;99.90;;;;;;5078376;28;20032;-41
2023/03/24 02:03:05;;;;;;;9.73;6.72;;;11.10;99.90;;;;;;5078029;28;20119;-50
2023/03/24 02:05:34;;;;;;;10.82;6.78;;;11.10;99.90;;;;;;5078204;28;20894;-45
2023/03/24 02:08:15;;;;;;;12.15;6.78;;;11.10;99.90;;;;;;5078680;28;20048;-52
2023/03/24 02:10:43;;;;;;;8.90;6.68;;;11.10;99.90;;;;;;5077830;28;20044;-53
2023/03/24 02:13:09;;;;;;;9.52;6.72;;;11.10;99.90;;;;;;5078740;28;20096;-43
2023/03/24 02:15:43;;;;;;;7.88;6.85;;;11.10;99.90;;;;;;5047701;28;20473;-45
2023/03/24 02:18:27;;;;;;;11.02;6.82;;;11.10;99.90;;;;;;5066084;28;20101;-40
2023/03/24 02:21:11;;;;;;;13.18;6.60;;;11.10;99.90;;;;;;5078152;28;20131;-44
2023/03/24 02:23:57;;;;;;;12.20;7.28;;;11.10;99.90;;;;;;5078313;28;20040;-44
2023/03/24 02:26:54;;;;;;;11.38;6.43;;;11.10;99.90;;;;;;5067577;28;20052;-49
2023/03/24 02:29:20;;;;;;;10.45;7.30;;;11.10;99.90;;;;;;5076930;28;20246;-51
2023/03/24 02:32:07;;;;;;;10.23;7.22;;;11.20;99.90;;;;;;5078118;28;20044;-44
2023/03/24 02:34:48;;;;;;;11.43;7.13;;;11.20;99.90;;;;;;5078864;28;20040;-45
2023/03/24 02:37:26;;;;;;;11.80;6.93;;;11.20;99.90;;;;;;5078475;28;20077;-39
2023/03/24 02:40:07;;;;;;;8.07;6.63;;;11.20;99.90;;;;;;5077685;28;20530;-42
2023/03/24 02:42:53;;;;;;;10.73;6.90;;;11.20;99.90;;;;;;5077456;28;20159;-47
2023/03/24 02:45:21;;;;;;;9.70;6.68;;;11.20;99.90;;;;;;5077194;28;20048;-44
2023/03/24 02:47:51;;;;;;;9.50;6.82;;;11.20;99.90;;;;;;5086391;28;20489;-39
2023/03/24 02:50:37;;;;;;;8.75;6.70;;;11.20;99.90;;;;;;5079212;28;20068;-40
2023/03/24 02:53:10;;;;;;;12.70;7.97;;;11.20;99.90;;;;;;5077734;28;20516;-49
2023/03/24 02:55:49;;;;;;;12.63;8.02;;;11.30;99.90;;;;;;5078255;28;20250;-39
2023/03/24 02:58:22;;;;;;;8.82;6.05;;;11.30;99.90;;;;;;5070077;28;20487;-50
2023/03/24 03:01:01;;;;;;;10.60;7.22;;;11.30;99.90;;;;;;5064570;28;20168;-46
2023/03/24 03:03:33;;;;;;;10.38;6.32;;;11.30;99.90;;;;;;5063582;28;20165;-43
2023/03/24 03:06:21;;;;;;;7.75;6.35;;;11.30;99.90;;;;;;5072742;28;20051;-47
2023/03/24 03:08:49;;;;;;;7.65;6.43;;;11.30;99.90;;;;;;5066683;28;20494;-43
2023/03/24 03:11:16;;;;;;;8.80;6.22;;;11.20;99.90;;;;;;5077321;28;20047;-40
2023/03/24 03:13:48;;;;;;;8.10;5.97;;;11.10;99.90;;;;;;5076845;28;20047;-42
2023/03/24 03:16:33;;;;;;;7.78;5.93;;;11.00;99.90;;;;;;5063373;28;20113;-47
2023/03/24 03:19:03;;;;;;;11.00;5.93;;;10.90;99.90;;;;;;5076162;28;20083;-47
2023/03/24 03:21:35;;;;;;;18.38;4.70;;;10.90;99.90;;;;;;5076674;28;20032;-53
2023/03/24 03:24:10;;;;;;;7.55;4.65;;;10.80;99.90;;;;;;5076446;28;20051;-50
2023/03/24 03:26:36;;;;;;;7.82;4.53;;;10.80;99.90;;;;;;5074976;28;20040;-46
2023/03/24 03:29:15;;;;;;;8.80;3.13;;;10.70;99.90;;;;;;5062321;28;20035;-46
2023/03/24 03:31:51;;;;;;;7.95;3.17;;;10.60;99.90;;;;;;5075719;28;20100;-42
2023/03/24 03:34:56;;;;;;;9.38;3.00;;;10.60;99.90;;;;;;5063419;28;20394;-44
2023/03/24 03:37:29;;;;;;;10.45;2.70;;;10.40;99.90;;;;;;5062480;28;20056;-49
2023/03/24 03:40:04;;;;;;;7.90;2.65;;;10.50;99.90;;;;;;5062284;28;20076;-49
2023/03/24 03:42:29;;;;;;;10.80;3.30;;;10.40;99.90;;;;;;5062069;28;20472;-46
2023/03/24 03:44:55;;;;;;;7.45;2.45;;;10.30;99.90;;;;;;5075586;28;20445;-47
2023/03/24 03:47:21;;;;;;;11.18;3.15;;;10.30;99.90;;;;;;5075794;28;20051;-44
2023/03/24 03:49:48;;;;;;;8.30;3.05;;;10.30;99.90;;;;;;5075334;28;20047;-48
2023/03/24 03:52:15;;;;;;;6.38;2.35;;;10.30;99.90;;;;;;5076161;28;20550;-42
2023/03/24 03:54:42;;;;;;;8.85;2.83;;;10.20;99.90;;;;;;5075323;28;20040;-44
2023/03/24 03:57:10;;;;;;;10.75;2.90;;;10.20;99.90;;;;;;5076493;28;20048;-42
2023/03/24 03:59:38;;;;;;;12.07;3.17;;;10.20;99.90;;;;;;5075371;28;20709;-42
2023/03/24 04:02:15;;;;;;;13.43;2.83;;;10.10;99.90;;;;;;5076256;28;20059;-46
2023/03/24 04:05:12;;;;;;;10.57;2.97;;;10.10;99.90;;;;;;5075784;28;20181;-49
2023/03/24 04:08:03;;;;;;;10.27;2.50;;;10.00;99.90;;;;;;5072337;28;20052;-48
2023/03/24 04:10:53;;;;;;;9.00;2.60;;;9.90;99.90;;;;;;5075003;28;20260;-49
2023/03/24 04:13:44;;;;;;;7.35;2.47;;;9.90;99.90;;;;;;5075734;28;20113;-45
2023/03/24 04:16:44;;;;;;;13.38;2.35;;;9.90;99.90;;;;;;5062243;28;20042;-53
2023/03/24 04:19:26;;;;;;;12.75;2.63;;;9.80;99.90;;;;;;5031514;28;20130;-46
2023/03/24 04:22:16;;;;;;;7.97;2.30;;;9.80;99.90;;;;;;5032246;28;20045;-49
2023/03/24 04:24:44;;;;;;;13.40;2.28;;;9.70;99.90;;;;;;5031925;28;20578;-44
2023/03/24 04:27:15;;;;;;;11.38;2.38;;;9.60;99.90;;;;;;5032192;28;20067;-45
2023/03/24 04:29:53;;;;;;;10.77;2.50;;;9.50;99.90;;;;;;5031283;28;20098;-48
2023/03/24 04:32:45;;;;;;;13.95;3.90;;;9.40;99.90;;;;;;5031918;28;20059;-39
2023/03/24 04:35:30;;;;;;;14.93;3.88;;;9.30;99.90;;;;;;5031496;28;20063;-48
2023/03/24 04:38:01;;;;;;;11.50;2.72;;;9.30;99.90;;;;;;5032229;28;20411;-40
2023/03/24 04:40:31;;;;;;;12.88;2.63;;;9.30;99.90;;;;;;5032057;28;20041;-40
2023/03/24 04:43:03;;;;;;;14.98;4.40;;;9.30;99.90;;;;;;5032285;28;20320;-45
2023/03/24 04:45:32;;;;;;;13.50;4.10;;;9.30;99.90;;;;;;5031301;28;20399;-42
2023/03/24 04:48:01;;;;;;;19.70;5.20;;;9.40;99.90;;;;;;5032460;28;20160;-45
2023/03/24 04:50:35;;;;;;;15.23;4.50;;;9.30;99.90;;;;;;5032356;28;20049;-45
2023/03/24 04:53:02;;;;;;;16.42;3.60;;;9.30;99.90;;;;;;5032540;28;20061;-52
2023/03/24 04:55:49;;;;;;;14.18;4.38;;;9.30;99.90;;;;;;5038354;28;20048;-47
2023/03/24 04:58:16;;;;;;;17.95;4.25;;;9.30;99.90;;;;;;5071899;28;20048;-48
2023/03/24 05:00:42;;;;;;;16.50;3.65;;;9.20;99.90;;;;;;5071958;28;20119;-39
2023/03/24 05:03:12;;;;;;;22.23;4.15;;;9.20;99.90;;;;;;5075904;28;20122;-47
2023/03/24 05:05:49;;;;;;;17.88;5.25;;;9.20;99.90;;;;;;5062181;28;20048;-47
2023/03/24 05:08:15;;;;;;;17.58;3.67;;;9.20;99.90;;;;;;5073424;28;20051;-45
2023/03/24 05:10:42;;;;;;;12.93;3.50;;;9.20;99.90;;;;;;5074690;28;20412;-51
2023/03/24 05:13:08;;;;;;;13.93;4.50;;;9.10;99.90;;;;;;5074664;28;20040;-39
2023/03/24 05:15:34;;;;;;;13.93;3.50;;;9.10;99.90;;;;;;5061125;28;20047;-49
2023/03/24 05:18:00;;;;;;;14.93;4.25;;;9.00;99.90;;;;;;5074781;28;20044;-50
2023/03/24 05:20:26;;;;;;;10.38;2.47;;;8.90;99.90;;;;;;5075370;28;20051;-49
2023/03/24 05:22:52;;;;;;;21.08;4.72;;;8.90;99.90;;;;;;5070081;28;20449;-47
2023/03/24 05:25:19;;;;;;;15.40;3.15;;;8.80;99.90;;;;;;5072384;28;20127;-46
2023/03/24 05:27:46;;;;;;;15.48;3.55;;;8.80;99.90;;;;;;5078989;28;20517;-51
2023/03/24 05:30:12;;;;;;;11.00;3.35;;;8.70;99.90;;;;;;5076798;28;20036;-48
2023/03/24 05:32:37;;;;;;;18.35;3.63;;;8.70;99.90;;;;;;5079130;28;20043;-43
2023/03/24 05:35:04;;;;;;;20.30;3.97;;;8.70;99.90;;;;;;5064258;28;20383;-43
2023/03/24 05:37:30;;;;;;;16.48;3.70;;;8.60;99.90;;;;;;5078458;28;20068;-53
2023/03/24 05:39:56;;;;;;;16.45;3.63;;;8.70;99.90;;;;;;5078291;28;20078;-41
2023/03/24 05:42:22;;;;;;;18.70;3.70;;;8.60;99.90;;;;;;5075910;28;20577;-47
2023/03/24 05:44:48;;;;;;;19.92;4.78;;;8.60;99.90;;;;;;5078229;28;20157;-41
2023/03/24 05:47:15;;;;;;;21.00;4.75;;;8.60;99.90;;;;;;5069913;28;20070;-49
2023/03/24 05:49:44;;;;;;;17.60;4.32;;;8.60;99.90;;;;;;5078867;28;20040;-44
2023/03/24 05:52:11;;;;;;;16.73;3.80;;;8.60;99.90;;;;;;5076924;28;20155;-50
2023/03/24 05:54:38;;;;;;;16.48;3.95;;;8.60;99.90;;;;;;5078704;28;20040;-47
2023/03/24 05:57:06;;;;;;;19.02;3.80;;;8.60;99.90;;;;;;5060109;28;20607;-47
2023/03/24 05:59:33;;;;;;;17.98;3.92;;;8.60;99.90;;;;;;5077384;28;20127;-45
2023/03/24 06:01:59;;;;;;;16.20;4.03;;;8.60;99.90;;;;;;5078496;28;20395;-50
2023/03/24 06:04:28;;;;;;;20.17;5.20;;;8.70;99.90;;;;;;5075081;28;20056;-50
2023/03/24 06:06:57;;;;;;;15.52;4.20;;;8.70;99.90;;;;;;5077943;28;20123;-47
2023/03/24 06:09:27;;;;;;;18.88;3.60;;;8.80;99.90;;;;;;5078099;28;20343;-43
2023/03/24 06:11:54;;;;;;;16.63;3.50;;;8.80;99.90;;;;;;5076570;28;20108;-46
2023/03/24 06:14:20;;;;;;;16.75;4.28;;;8.80;99.90;;;;;;5073392;28;20459;-54
2023/03/24 06:16:48;;;;;;;14.82;3.83;;;8.90;99.90;;;;;;5073942;28;20044;-41
2023/03/24 06:19:15;;;;;;;13.93;3.88;;;8.90;99.90;;;;;;5070992;28;20097;-50
2023/03/24 06:21:40;;;;;;;20.02;4.25;;;9.10;99.90;;;;;;5073259;28;20482;-44
2023/03/24 06:24:06;;;;;;;18.67;3.72;;;9.30;99.90;;;;;;5074783;28;20051;-52
2023/03/24 06:26:32;;;;;;;21.73;3.83;;;9.50;99.90;;;;;;5072022;28;20075;-50
2023/03/24 06:28:58;;;;;;;17.02;3.90;;;9.80;99.90;;;;;;5073272;28;20449;-41
2023/03/24 06:31:24;;;;;;;18.00;4.20;;;9.90;99.90;;;;;;5072258;28;20044;-43
2023/03/24 06:33:51;;;;;;;14.35;3.53;;;9.80;99.90;;;;;;5071960;28;20047;-45
2023/03/24 06:36:17;;;;;;;22.95;4.45;;;9.70;99.90;;;;;;5073292;28;20056;-51
2023/03/24 06:38:44;;;;;;;16.88;4.45;;;9.70;99.90;;;;;;5071720;28;20759;-49
2023/03/24 06:41:10;;;;;;;25.48;4.28;;;9.80;99.90;;;;;;5073813;28;20028;-51
2023/03/24 06:43:36;;;;;;;18.25;4.65;;;9.80;99.90;;;;;;5073924;28;20083;-43
2023/03/24 06:46:02;;;;;;;20.27;4.32;;;9.70;99.90;;;;;;5072501;28;20043;-50
2023/03/24 06:48:28;;;;;;;23.52;4.60;;;9.70;99.90;;;;;;5072620;28;20035;-49
2023/03/24 06:50:54;;;;;;;17.90;3.88;;;9.70;99.90;;;;;;5073380;28;20555;-46
2023/03/24 06:53:21;;;;;;;24.77;4.45;;;9.70;99.90;;;;;;5072077;28;20036;-49
2023/03/24 06:55:47;;;;;;;19.13;5.05;;;9.80;99.90;;;;;;5073876;28;20085;-46
2023/03/24 06:58:14;;;;;;;23.50;4.95;;;9.80;99.90;;;;;;5073127;28;20458;-53
2023/03/24 07:00:41;;;;;;;23.15;4.47;;;9.80;99.90;;;;;;5074422;28;20051;-52
2023/03/24 07:03:07;;;;;;;27.50;4.43;;;9.90;99.90;;;;;;5073870;28;20047;-43
2023/03/24 07:05:42;;;;;;;19.48;4.82;;;9.90;99.90;;;;;;5072329;28;20032;-45
2023/03/24 07:08:08;;;;;;;26.83;4.97;;;9.90;99.90;;;;;;5072614;28;20048;-47
2023/03/24 07:10:35;;;;;;;22.92;4.88;;;9.90;99.90;;;;;;5034554;28;1095219;-48
2023/03/24 07:13:02;;;;;;;24.20;4.60;;;9.90;99.90;;;;;;5075208;28;20084;-45
2023/03/24 07:15:28;;;;;;;27.52;5.30;;;9.90;99.90;;;;;;5071106;28;20043;-42
2023/03/24 07:17:54;;;;;;;23.75;4.90;;;10.00;99.90;;;;;;5074049;28;20043;-46
2023/03/24 07:20:20;;;;;;;27.10;5.57;;;10.00;99.90;;;;;;5074029;28;20047;-55
2023/03/24 07:22:46;;;;;;;26.27;4.53;;;10.00;99.90;;;;;;5074257;28;20486;-41
2023/03/24 07:25:13;;;;;;;29.73;5.95;;;10.00;99.90;;;;;;5072620;28;20040;-44
2023/03/24 07:27:39;;;;;;;23.63;4.70;;;10.00;99.90;;;;;;5071994;28;20471;-51
2023/03/24 07:30:06;;;;;;;25.98;5.32;;;10.00;99.90;;;;;;5073878;28;20043;-48
2023/03/24 07:32:38;;;;;;;30.33;6.45;;;10.00;99.90;;;;;;5073522;28;20043;-42
2023/03/24 07:35:06;;;;;;;30.23;6.05;;;10.00;99.90;;;;;;5071890;28;20100;-51
2023/03/24 07:37:32;;;;;;;22.13;5.45;;;10.00;99.90;;;;;;5075030;28;20071;-43
2023/03/24 07:39:57;;;;;;;31.67;5.88;;;10.00;99.90;;;;;;5073433;28;20131;-39
2023/03/24 07:42:24;;;;;;;31.58;5.78;;;10.00;99.90;;;;;;5075066;28;20040;-46
2023/03/24 07:44:50;;;;;;;26.67;6.15;;;10.10;99.90;;;;;;5073705;28;20040;-46
2023/03/24 07:47:16;;;;;;;26.48;6.40;;;10.20;99.90;;;;;;5073894;28;20487;-42
2023/03/24 07:49:42;;;;;;;24.02;6.47;;;10.20;99.90;;;;;;5075222;28;20071;-47
2023/03/24 07:52:07;;;;;;;30.67;6.35;;;10.20;99.90;;;;;;5075381;28;20481;-40
2023/03/24 07:54:33;;;;;;;26.52;5.82;;;10.30;99.90;;;;;;5073886;28;20044;-44
2023/03/24 07:57:00;;;;;;;25.42;7.10;;;10.30;99.90;;;;;;5073786;28;20343;-46
2023/03/24 07:59:26;;;;;;;28.55;5.95;;;10.30;99.90;;;;;;5074415;28;20047;-50
2023/03/24 08:01:52;;;;;;;27.25;5.53;;;10.40;99.90;;;;;;5071470;28;20044;-44
2023/03/24 08:04:18;;;;;;;28.80;5.30;;;10.60;99.90;;;;;;5072659;28;20505;-39
2023/03/24 08:06:44;;;;;;;31.85;7.40;;;10.60;99.90;;;;;;5070673;28;20349;-44
2023/03/24 08:09:10;;;;;;;35.05;7.00;;;10.70;99.90;;;;;;5071768;28;20448;-51
2023/03/24 08:11:37;;;;;;;25.92;6.32;;;10.70;99.90;;;;;;5069371;28;20094;-53
2023/03/24 08:14:03;;;;;;;25.90;5.93;;;10.70;99.90;;;;;;5072856;28;20768;-42
2023/03/24 08:16:28;;;;;;;25.23;5.63;;;10.60;99.90;;;;;;5070980;28;20139;-42
2023/03/24 08:18:57;;;;;;;31.08;6.57;;;10.70;99.90;;;;;;5052229;28;20442;-45
2023/03/24 08:21:23;;;;;;;26.45;6.32;;;10.60;99.90;;;;;;5071596;28;20451;-46
2023/03/24 08:23:49;;;;;;;25.55;5.97;;;10.70;99.90;;;;;;5071676;28;20283;-42
2023/03/24 08:26:14;;;;;;;24.10;5.47;;;10.90;99.90;;;;;;5070694;28;20040;-49
2023/03/24 08:28:40;;;;;;;36.85;5.65;;;11.10;99.90;;;;;;5073219;28;20040;-49
2023/03/24 08:31:07;;;;;;;27.20;7.15;;;11.40;99.90;;;;;;5073729;28;20044;-46
2023/03/24 08:33:33;;;;;;;21.83;5.20;;;11.70;99.90;;;;;;5073501;28;20040;-45
2023/03/24 08:35:59;;;;;;;22.20;5.13;;;11.70;99.90;;;;;;5071331;28;20114;-42
2023/03/24 08:38:31;;;;;;;25.27;4.88;;;11.80;99.90;;;;;;5073713;28;20055;-48
2023/03/24 08:41:05;;;;;;;24.20;6.07;;;12.10;99.90;;;;;;5073165;28;20040;-43
2023/03/24 08:43:33;;;;;;;33.25;6.00;;;12.10;99.90;;;;;;5073902;28;20490;-42
2023/03/24 08:46:00;;;;;;;26.65;5.75;;;12.10;99.90;;;;;;5071790;28;20044;-42
2023/03/24 08:48:27;;;;;;;28.77;5.65;;;12.20;99.90;;;;;;5073523;28;20413;-43
2023/03/24 08:50:54;;;;;;;28.33;7.45;;;12.30;99.90;;;;;;5071527;28;20302;-48
2023/03/24 08:53:20;;;;;;;25.50;5.05;;;12.40;99.90;;;;;;5068403;28;20556;-46
2023/03/24 08:55:46;;;;;;;22.52;5.65;;;12.50;99.90;;;;;;5072031;28;20085;-46
2023/03/24 08:58:16;;;;;;;30.23;5.78;;;12.60;99.90;;;;;;5071831;28;20040;-51
2023/03/24 09:00:43;;;;;;;28.60;6.07;;;12.70;99.90;;;;;;5069970;28;20036;-56
2023/03/24 09:03:13;;;;;;;27.80;6.22;;;12.80;99.90;;;;;;5073077;28;20048;-56
2023/03/24 09:05:39;;;;;;;22.52;6.07;;;13.00;99.90;;;;;;5073182;28;20117;-49
2023/03/24 09:08:05;;;;;;;28.40;7.07;;;12.90;99.90;;;;;;5072139;28;20877;-49
2023/03/24 09:10:31;;;;;;;21.52;4.72;;;12.80;99.90;;;;;;5074052;28;20036;-46
2023/03/24 09:12:57;;;;;;;26.45;5.18;;;13.10;99.90;;;;;;5071071;28;20759;-43
2023/03/24 09:15:22;;;;;;;28.00;6.05;;;13.30;99.90;;;;;;5072602;28;20036;-46
2023/03/24 09:17:48;;;;;;;23.15;5.47;;;13.40;99.90;;;;;;5073382;28;20040;-39
2023/03/24 09:20:14;;;;;;;18.73;4.57;;;13.70;99.90;;;;;;5073463;28;20044;-43
2023/03/24 09:22:42;;;;;;;27.23;5.55;;;13.50;99.90;;;;;;5073258;28;20040;-51
2023/03/24 09:25:11;;;;;;;20.63;5.30;;;13.60;99.90;;;;;;5072383;28;20059;-47
2023/03/24 09:27:37;;;;;;;21.55;5.70;;;13.60;99.90;;;;;;5071861;28;20040;-48
2023/03/24 09:30:03;;;;;;;21.38;5.13;;;13.60;99.90;;;;;;5073463;28;20036;-42
2023/03/24 09:32:29;;;;;;;23.48;5.28;;;13.40;99.90;;;;;;5071156;28;20492;-46
2023/03/24 09:34:55;;;;;;;23.92;5.53;;;13.40;99.90;;;;;;5069210;28;20052;-55
2023/03/24 09:37:21;;;;;;;31.45;5.93;;;13.60;99.90;;;;;;5072722;28;20051;-42
2023/03/24 09:39:47;;;;;;;24.52;5.57;;;13.80;99.90;;;;;;5073695;28;20865;-50
2023/03/24 09:42:21;;;;;;;21.30;5.25;;;13.90;99.90;;;;;;5073033;28;20048;-41
2023/03/24 09:44:52;;;;;;;20.80;4.88;;;13.90;99.90;;;;;;5072866;28;20081;-43
2023/03/24 09:47:30;;;;;;;20.85;4.75;;;13.60;99.90;;;;;;5072662;28;20085;-48
2023/03/24 09:50:01;;;;;;;21.83;5.07;;;13.40;99.90;;;;;;5072524;28;20062;-46
2023/03/24 09:52:34;;;;;;;25.20;4.22;;;13.30;99.90;;;;;;5072549;28;20495;-43
2023/03/24 09:55:03;;;;;;;17.65;5.65;;;13.30;99.90;;;;;;5069355;28;20036;-46
2023/03/24 09:57:35;;;;;;;18.02;4.72;;;13.30;99.90;;;;;;5070474;28;20051;-46
2023/03/24 10:00:23;;;;;;;21.15;5.88;;;13.40;99.90;;;;;;5052942;28;20078;-44
2023/03/24 10:02:50;;;;;;;20.40;5.20;;;13.20;99.90;;;;;;5070412;28;20043;-39
2023/03/24 10:05:38;;;;;;;19.02;5.13;;;13.40;99.90;;;;;;5072091;28;20047;-49
2023/03/24 10:08:38;;;;;;;21.38;6.28;;;13.60;99.90;;;;;;5073597;28;20036;-50
2023/03/24 10:11:18;;;;;;;17.75;4.40;;;13.50;99.90;;;;;;5076428;28;20094;-46
2023/03/24 10:13:55;;;;;;;20.42;4.35;;;13.60;99.90;;;;;;5077263;28;20145;-43
2023/03/24 10:16:45;;;;;;;16.63;4.38;;;13.80;99.90;;;;;;5076289;28;20040;-41
2023/03/24 10:19:52;;;;;;;16.08;3.45;;;13.90;99.90;;;;;;5052859;28;20823;-51
2023/03/24 10:22:18;;;;;;;17.30;4.88;;;14.00;99.90;;;;;;5051969;28;20055;-44
2023/03/24 10:24:55;;;;;;;18.67;4.65;;;14.20;99.90;;;;;;5051982;28;20049;-47
2023/03/24 10:27:33;;;;;;;22.92;5.25;;;14.20;99.90;;;;;;5051974;28;20105;-44
2023/03/24 10:30:14;;;;;;;19.17;5.18;;;14.30;99.90;;;;;;5051760;28;20163;-47
2023/03/24 10:32:42;;;;;;;19.05;4.65;;;14.40;99.90;;;;;;5049591;28;20041;-53
2023/03/24 10:35:18;;;;;;;27.20;6.40;;;14.40;99.90;;;;;;5052351;28;20068;-46
2023/03/24 10:37:44;;;;;;;20.63;5.82;;;14.30;99.90;;;;;;5051042;28;20184;-43
2023/03/24 10:40:16;;;;;;;26.80;5.82;;;14.30;99.90;;;;;;5035578;28;20407;-48
2023/03/24 10:42:45;;;;;;;23.73;5.18;;;14.30;99.90;;;;;;5049843;28;20052;-46
2023/03/24 10:45:13;;;;;;;19.42;4.25;;;14.20;99.90;;;;;;5051406;28;20164;-46
2023/03/24 10:47:40;;;;;;;24.60;5.32;;;14.10;99.90;;;;;;5051922;28;20566;-49
2023/03/24 10:50:07;;;;;;;21.20;5.07;;;14.00;99.90;;;;;;5051998;28;21061;-44
2023/03/24 10:52:42;;;;;;;17.95;4.32;;;13.80;99.90;;;;;;5017222;28;20113;-47
2023/03/24 10:55:15;;;;;;;21.60;5.75;;;13.60;99.90;;;;;;5051580;28;20128;-48
2023/03/24 10:57:44;;;;;;;21.25;4.82;;;13.70;99.90;;;;;;5074387;28;20353;-43
2023/03/24 11:00:21;;;;;;;21.30;5.88;;;13.80;99.90;;;;;;5072889;28;20062;-49
2023/03/24 11:02:56;;;;;;;24.00;4.88;;;13.90;99.90;;;;;;5068356;28;20105;-42
2023/03/24 11:05:29;;;;;;;18.38;5.20;;;13.70;99.90;;;;;;5073355;28;20240;-43
2023/03/24 11:08:11;;;;;;;23.90;5.50;;;13.60;99.90;;;;;;5068687;28;20335;-51
2023/03/24 11:10:37;;;;;;;13.68;3.45;;;13.70;99.90;;;;;;5075053;28;20036;-44
2023/03/24 11:13:04;;;;;;;23.10;5.13;;;13.60;99.90;;;;;;5074734;28;20687;-46
2023/03/24 11:15:31;;;;;;;17.50;4.30;;;13.70;99.90;;;;;;5074543;28;20774;-54
2023/03/24 11:18:02;;;;;;;19.40;4.40;;;13.80;99.90;;;;;;5075075;28;20044;-48
2023/03/24 11:20:36;;;;;;;22.55;4.60;;;14.00;99.90;;;;;;5072131;28;20972;-44
2023/03/24 11:23:15;;;;;;;19.08;3.85;;;14.20;99.90;;;;;;5075074;28;20044;-46
2023/03/24 11:25:46;;;;;;;15.80;4.63;;;14.20;99.90;;;;;;5074080;28;20089;-44
2023/03/24 11:28:20;;;;;;;19.23;5.03;;;14.00;99.90;;;;;;5075494;28;20051;-48
2023/03/24 11:30:50;;;;;;;14.13;3.55;;;14.00;99.90;;;;;;5075355;28;20039;-50
2023/03/24 11:33:45;;;;;;;14.80;3.63;;;13.90;99.90;;;;;;5071560;28;20040;-45
2023/03/24 11:36:29;;;;;;;17.52;4.88;;;13.80;99.90;;;;;;5048559;28;20088;-44
2023/03/24 11:39:00;;;;;;;18.90;4.53;;;13.90;99.90;;;;;;5051238;28;20040;-45
2023/03/24 11:41:26;;;;;;;16.77;3.80;;;14.10;99.90;;;;;;5050936;28;20063;-47
2023/03/24 11:44:21;;;;;;;19.40;4.28;;;14.20;99.90;;;;;;5050715;28;20050;-43
2023/03/24 11:47:00;;;;;;;14.38;3.83;;;14.30;99.90;;;;;;5051338;28;20424;-42
2023/03/24 11:49:31;;;;;;;18.83;3.95;;;14.50;99.90;;;;;;5049269;28;20041;-42
2023/03/24 11:51:57;;;;;;;13.80;4.50;;;14.50;99.90;;;;;;5051197;28;20041;-50
2023/03/24 11:54:35;;;;;;;15.57;4.43;;;14.30;99.90;;;;;;5050572;28;20048;-44
2023/03/24 11:57:10;;;;;;;21.08;3.92;;;14.50;99.90;;;;;;5045518;28;20478;-45
2023/03/24 11:59:56;;;;;;;16.40;4.47;;;14.60;99.90;;;;;;5034407;28;20048;-46
2023/03/24 12:02:54;;;;;;;18.48;4.35;;;14.60;99.90;;;;;;5050055;28;20040;-44
2023/03/24 12:05:41;;;;;;;17.50;4.30;;;14.70;99.90;;;;;;5048200;28;20590;-49
2023/03/24 12:08:26;;;;;;;19.42;3.67;;;14.80;99.90;;;;;;5049833;28;20051;-45
2023/03/24 12:11:15;;;;;;;18.38;4.40;;;14.60;99.90;;;;;;5049436;28;20369;-48
2023/03/24 12:13:47;;;;;;;21.38;5.40;;;14.60;99.90;;;;;;5064503;28;20052;-47
2023/03/24 12:16:43;;;;;;;21.58;5.47;;;14.50;99.90;;;;;;5072406;28;20116;-50
2023/03/24 12:19:08;;;;;;;21.65;5.18;;;14.50;99.90;;;;;;5070517;28;20056;-52
2023/03/24 12:22:25;;;;;;;18.80;3.90;;;14.40;99.90;;;;;;5074101;28;20044;-49
2023/03/24 12:25:07;;;;;;;15.23;4.47;;;14.60;99.90;;;;;;5048698;28;20131;-44
2023/03/24 12:27:48;;;;;;;20.65;4.20;;;14.60;99.90;;;;;;5049766;28;20048;-43
2023/03/24 12:30:35;;;;;;;18.80;4.40;;;14.70;99.90;;;;;;5048586;28;20060;-43
2023/03/24 12:33:12;;;;;;;19.13;4.18;;;14.90;99.90;;;;;;5050310;28;20094;-40
2023/03/24 12:35:53;;;;;;;19.13;4.72;;;15.10;99.90;;;;;;5033736;28;20625;-44
2023/03/24 12:38:41;;;;;;;16.77;4.40;;;15.00;99.90;;;;;;5050524;28;20051;-42
2023/03/24 12:41:27;;;;;;;17.05;4.18;;;14.90;99.90;;;;;;5050266;28;20055;-48
2023/03/24 12:44:26;;;;;;;17.83;4.35;;;14.70;99.90;;;;;;5048487;28;20113;-46
2023/03/24 12:47:30;;;;;;;19.48;4.93;;;14.60;99.90;;;;;;4969416;28;20054;-47
2023/03/24 12:50:01;;;;;;;22.70;5.60;;;14.50;99.90;;;;;;4969548;28;20054;-52
2023/03/24 12:52:43;;;;;;;18.27;4.53;;;14.40;99.90;;;;;;4970101;28;20339;-40
2023/03/24 12:55:18;;;;;;;17.65;3.92;;;14.30;99.90;;;;;;4971345;28;20054;-54
2023/03/24 12:57:49;;;;;;;17.45;4.18;;;14.30;99.90;;;;;;4970074;28;20073;-48
2023/03/24 13:00:24;;;;;;;20.38;4.20;;;14.20;99.90;;;;;;4966530;28;20099;-48
2023/03/24 13:03:00;;;;;;;20.08;4.30;;;14.20;99.90;;;;;;5009044;28;20049;-49
2023/03/24 13:05:30;;;;;;;17.50;4.97;;;14.10;99.90;;;;;;5010098;28;20107;-45